Time;durP1;ratioP1;P1;durP2;ratioP2;P2;SDS_P1;SDS_P2;PMS_P1;PMS_P2;Temp;Humidity;BMP_temperature;BMP_pressure;BME280_temperature;BME280_humidity;BME280_pressure;Samples;Min_cycle;Max_cycle;Signal;HPM_P1;HPM_P2
2022/03/30 00:00:07;;;;;;;;;;;18.30;45.70;;;;;;5030419;28;1204;-70
2022/03/30 00:02:32;;;;;;;;;;;18.30;45.80;;;;;;5033294;28;1977;-70
2022/03/30 00:04:58;;;;;;;;;;;18.30;45.90;;;;;;5032112;28;1057;-70
2022/03/30 00:07:24;;;;;;;;;;;18.30;45.90;;;;;;5031223;28;1237;-70
2022/03/30 00:09:49;;;;;;;;;;;18.30;46.00;;;;;;5033192;28;795;-70
2022/03/30 00:12:15;;;;;;;;;;;18.30;46.10;;;;;;5033187;28;1125;-70
2022/03/30 00:14:40;;;;;;;;;;;18.30;46.20;;;;;;5033106;28;854;-70
2022/03/30 00:17:06;;;;;;;;;;;18.30;46.20;;;;;;5033019;28;784;-70
2022/03/30 00:19:31;;;;;;;;;;;18.30;46.30;;;;;;5015106;28;1200;-70
2022/03/30 00:21:57;;;;;;;;;;;18.20;46.30;;;;;;5032819;28;1957;-70
2022/03/30 00:24:22;;;;;;;;;;;18.30;46.40;;;;;;5033136;28;918;-70
2022/03/30 00:26:48;;;;;;;;;;;18.20;46.40;;;;;;5032780;28;807;-71
2022/03/30 00:29:14;;;;;;;;;;;18.20;46.50;;;;;;5033045;28;1214;-70
2022/03/30 00:31:39;;;;;;;;;;;18.20;46.60;;;;;;5031744;28;800;-71
2022/03/30 00:34:05;;;;;;;;;;;18.30;46.70;;;;;;5031665;28;954;-70
2022/03/30 00:36:30;;;;;;;;;;;18.20;46.70;;;;;;5032563;28;1158;-70
2022/03/30 00:38:56;;;;;;;;;;;18.20;46.80;;;;;;5032678;28;1174;-69
2022/03/30 00:41:21;;;;;;;;;;;18.20;46.80;;;;;;5032983;28;698;-70
2022/03/30 00:43:47;;;;;;;;;;;18.20;46.80;;;;;;5032894;28;706;-70
2022/03/30 00:46:12;;;;;;;;;;;18.20;46.90;;;;;;5032378;28;795;-70
2022/03/30 00:48:38;;;;;;;;;;;18.20;47.00;;;;;;5032588;28;1253;-70
2022/03/30 00:51:03;;;;;;;;;;;18.20;47.00;;;;;;5032551;28;1045;-69
2022/03/30 00:53:29;;;;;;;;;;;18.20;47.10;;;;;;5032698;28;895;-70
2022/03/30 00:55:54;;;;;;;;;;;18.20;47.20;;;;;;5032473;28;1061;-69
2022/03/30 00:58:23;;;;;;;;;;;18.20;47.20;;;;;;5032553;28;1211;-69
2022/03/30 01:00:48;;;;;;;;;;;18.20;47.30;;;;;;5015120;28;2801;-70
2022/03/30 01:03:14;;;;;;;;;;;18.20;47.30;;;;;;5031211;28;1973;-70
2022/03/30 01:05:40;;;;;;;;;;;18.20;47.40;;;;;;5032307;28;839;-70
2022/03/30 01:08:05;;;;;;;;;;;18.20;47.40;;;;;;5014733;28;1204;-71
2022/03/30 01:10:31;;;;;;;;;;;18.20;47.50;;;;;;5032784;28;1049;-70
2022/03/30 01:12:56;;;;;;;;;;;18.20;47.50;;;;;;5031429;28;776;-69
2022/03/30 01:15:22;;;;;;;;;;;18.20;47.60;;;;;;5031436;28;715;-70
2022/03/30 01:17:48;;;;;;;;;;;18.20;47.60;;;;;;5032363;28;1295;-70
2022/03/30 01:20:15;;;;;;;;;;;18.20;47.70;;;;;;5033302;28;1021;-70
2022/03/30 01:22:40;;;;;;;;;;;18.20;47.70;;;;;;5034957;28;1894;-69
2022/03/30 01:25:06;;;;;;;;;;;18.20;47.80;;;;;;5035042;28;891;-70
2022/03/30 01:27:32;;;;;;;;;;;18.20;47.90;;;;;;5034858;28;1301;-70
2022/03/30 01:32:41;;;;;;;;;;;18.20;48.00;;;;;;5036220;28;622;-69
2022/03/30 01:35:07;;;;;;;;;;;18.30;48.20;;;;;;5035872;28;850;-70
2022/03/30 01:37:32;;;;;;;;;;;18.30;48.20;;;;;;5034238;28;1274;-71
2022/03/30 01:39:58;;;;;;;;;;;18.30;48.20;;;;;;5035904;28;879;-70
2022/03/30 01:42:24;;;;;;;;;;;18.40;48.30;;;;;;5018349;28;1959;-70
2022/03/30 01:44:49;;;;;;;;;;;18.40;48.20;;;;;;5034634;28;1069;-69
2022/03/30 01:47:15;;;;;;;;;;;18.40;48.20;;;;;;5035649;28;1217;-71
2022/03/30 01:49:41;;;;;;;;;;;18.50;48.30;;;;;;5034121;28;942;-70
2022/03/30 01:52:07;;;;;;;;;;;18.50;48.30;;;;;;5034710;28;859;-70
2022/03/30 01:54:36;;;;;;;;;;;18.50;48.20;;;;;;5034662;28;839;-70
2022/03/30 01:57:02;;;;;;;;;;;18.50;48.20;;;;;;5034274;28;803;-69
2022/03/30 01:59:28;;;;;;;;;;;18.50;48.20;;;;;;5034536;28;1188;-71
2022/03/30 02:01:53;;;;;;;;;;;18.60;48.30;;;;;;5017573;28;1978;-71
2022/03/30 02:04:18;;;;;;;;;;;18.60;48.30;;;;;;5035296;28;738;-70
2022/03/30 02:06:44;;;;;;;;;;;18.60;48.30;;;;;;5034084;28;800;-71
2022/03/30 02:09:12;;;;;;;;;;;18.60;48.20;;;;;;5035515;28;1181;-71
2022/03/30 02:11:37;;;;;;;;;;;18.60;48.30;;;;;;5034546;28;924;-70
2022/03/30 02:14:03;;;;;;;;;;;18.70;48.40;;;;;;5035445;28;1073;-70
2022/03/30 02:16:28;;;;;;;;;;;18.70;48.30;;;;;;5034945;28;910;-69
2022/03/30 02:18:54;;;;;;;;;;;18.70;48.30;;;;;;5035068;28;1205;-70
2022/03/30 02:21:19;;;;;;;;;;;18.70;48.90;;;;;;5035222;28;843;-70
2022/03/30 02:23:45;;;;;;;;;;;18.70;48.30;;;;;;5035214;28;1895;-70
2022/03/30 02:26:11;;;;;;;;;;;18.70;48.30;;;;;;5033745;28;840;-71
2022/03/30 02:28:36;;;;;;;;;;;18.70;48.40;;;;;;5034935;28;1210;-70
2022/03/30 02:31:02;;;;;;;;;;;18.70;48.40;;;;;;5033399;28;864;-70
2022/03/30 02:33:27;;;;;;;;;;;18.70;48.40;;;;;;5034898;28;887;-69
2022/03/30 02:35:53;;;;;;;;;;;18.70;48.50;;;;;;5034510;28;1186;-71
2022/03/30 02:38:18;;;;;;;;;;;18.70;48.50;;;;;;5034883;28;1263;-71
2022/03/30 02:40:44;;;;;;;;;;;18.70;48.50;;;;;;5034936;28;1029;-69
2022/03/30 02:43:10;;;;;;;;;;;18.80;48.60;;;;;;5033707;28;1965;-70
2022/03/30 02:45:35;;;;;;;;;;;18.70;48.60;;;;;;5033532;28;1265;-71
2022/03/30 02:48:19;;;;;;;;;;;18.70;48.50;;;;;;5034391;28;1213;-70
2022/03/30 02:50:48;;;;;;;;;;;18.70;49.20;;;;;;5033929;28;3218;-69
2022/03/30 02:53:16;;;;;;;;;;;18.70;48.60;;;;;;5034872;28;913;-70
2022/03/30 02:55:42;;;;;;;;;;;18.70;48.60;;;;;;5032662;28;1101;-70
2022/03/30 02:58:08;;;;;;;;;;;18.70;48.60;;;;;;5033281;28;1361;-70
2022/03/30 03:00:33;;;;;;;;;;;18.70;48.70;;;;;;5032764;28;1228;-70
2022/03/30 03:03:02;;;;;;;;;;;18.80;48.70;;;;;;5032811;28;1914;-69
2022/03/30 03:05:33;;;;;;;;;;;18.70;48.70;;;;;;5032559;28;1240;-67
2022/03/30 03:07:59;;;;;;;;;;;18.70;48.70;;;;;;5033881;28;1285;-68
2022/03/30 03:10:25;;;;;;;;;;;18.70;48.80;;;;;;5033949;28;1227;-69
2022/03/30 03:12:51;;;;;;;;;;;18.70;48.80;;;;;;5033615;28;1397;-69
2022/03/30 03:15:17;;;;;;;;;;;18.80;48.80;;;;;;5033900;28;1279;-67
2022/03/30 03:17:42;;;;;;;;;;;18.70;48.80;;;;;;5034104;28;1281;-70
2022/03/30 03:20:08;;;;;;;;;;;18.70;48.90;;;;;;5033623;28;1302;-69
2022/03/30 03:22:33;;;;;;;;;;;18.70;48.90;;;;;;5033691;28;1902;-69
2022/03/30 03:24:59;;;;;;;;;;;18.70;48.90;;;;;;5033286;28;1156;-68
2022/03/30 03:27:24;;;;;;;;;;;18.70;49.00;;;;;;5033609;28;1267;-68
2022/03/30 03:29:49;;;;;;;;;;;18.70;49.00;;;;;;5033930;28;616;-67
2022/03/30 03:32:15;;;;;;;;;;;18.70;49.10;;;;;;5033904;28;680;-70
2022/03/30 03:34:40;;;;;;;;;;;18.80;49.10;;;;;;5034042;28;780;-70
2022/03/30 03:37:06;;;;;;;;;;;18.80;49.10;;;;;;5033510;28;1098;-69
2022/03/30 03:39:31;;;;;;;;;;;18.80;49.20;;;;;;5033799;28;1278;-69
2022/03/30 03:41:57;;;;;;;;;;;18.70;49.20;;;;;;5032830;28;1949;-69
2022/03/30 03:44:22;;;;;;;;;;;18.80;49.20;;;;;;5033619;28;875;-68
2022/03/30 03:46:49;;;;;;;;;;;18.70;49.20;;;;;;5032140;28;890;-68
2022/03/30 03:49:14;;;;;;;;;;;18.70;49.20;;;;;;5033691;28;1172;-70
2022/03/30 03:51:39;;;;;;;;;;;18.70;49.30;;;;;;5032955;28;808;-70
2022/03/30 03:54:05;;;;;;;;;;;18.80;49.40;;;;;;5032397;28;935;-69
2022/03/30 03:56:30;;;;;;;;;;;18.80;49.40;;;;;;5033119;28;954;-70
2022/03/30 03:58:56;;;;;;;;;;;18.70;49.40;;;;;;5032481;28;1278;-69
2022/03/30 04:01:21;;;;;;;;;;;18.80;49.50;;;;;;5033445;28;1186;-69
2022/03/30 04:03:47;;;;;;;;;;;18.70;49.40;;;;;;5033586;28;1906;-69
2022/03/30 04:06:12;;;;;;;;;;;18.80;49.50;;;;;;5033010;28;707;-69
2022/03/30 04:08:37;;;;;;;;;;;18.70;49.50;;;;;;5033762;28;1297;-69
2022/03/30 04:11:03;;;;;;;;;;;18.80;49.50;;;;;;5033660;28;721;-69
2022/03/30 04:13:29;;;;;;;;;;;18.80;49.60;;;;;;5032144;28;723;-69
2022/03/30 04:15:54;;;;;;;;;;;18.80;49.60;;;;;;5032243;28;811;-69
2022/03/30 04:18:21;;;;;;;;;;;18.70;49.60;;;;;;5033354;28;1277;-68
2022/03/30 04:20:46;;;;;;;;;;;18.70;49.60;;;;;;5033134;28;922;-68
2022/03/30 04:23:12;;;;;;;;;;;18.80;49.70;;;;;;5032031;28;1894;-68
2022/03/30 04:25:37;;;;;;;;;;;18.70;49.70;;;;;;5031663;28;903;-68
2022/03/30 04:28:03;;;;;;;;;;;18.70;49.50;;;;;;5031641;28;1255;-68
2022/03/30 04:30:28;;;;;;;;;;;18.70;49.60;;;;;;5033119;28;1033;-69
2022/03/30 04:32:53;;;;;;;;;;;18.70;49.60;;;;;;5033086;28;950;-69
2022/03/30 04:35:24;;;;;;;;;;;18.70;49.60;;;;;;5033154;28;970;-68
2022/03/30 04:37:54;;;;;;;;;;;18.70;49.60;;;;;;5032666;28;1216;-69
2022/03/30 04:40:19;;;;;;;;;;;18.70;49.60;;;;;;5031756;28;749;-68
2022/03/30 04:42:45;;;;;;;;;;;18.70;49.70;;;;;;5033025;28;1883;-68
2022/03/30 04:45:10;;;;;;;;;;;18.70;49.70;;;;;;5033217;28;673;-68
2022/03/30 04:47:36;;;;;;;;;;;18.80;49.70;;;;;;5032772;28;1239;-68
2022/03/30 04:50:02;;;;;;;;;;;18.80;49.70;;;;;;5032771;28;919;-68
2022/03/30 04:52:27;;;;;;;;;;;18.80;49.60;;;;;;5032933;28;759;-68
2022/03/30 04:54:53;;;;;;;;;;;18.80;49.60;;;;;;5036082;28;807;-68
2022/03/30 04:57:18;;;;;;;;;;;18.90;49.60;;;;;;5035414;28;1196;-69
2022/03/30 04:59:44;;;;;;;;;;;18.90;49.60;;;;;;5036661;28;1095;-68
2022/03/30 05:02:09;;;;;;;;;;;18.90;49.50;;;;;;5036622;28;1977;-69
2022/03/30 05:04:35;;;;;;;;;;;18.90;49.40;;;;;;5036745;28;872;-68
2022/03/30 05:07:00;;;;;;;;;;;19.00;49.40;;;;;;5036482;28;808;-68
2022/03/30 05:09:25;;;;;;;;;;;19.00;49.40;;;;;;5036593;28;1283;-68
2022/03/30 05:11:51;;;;;;;;;;;19.00;49.40;;;;;;5036454;28;870;-68
2022/03/30 05:14:17;;;;;;;;;;;19.10;49.40;;;;;;5036380;28;950;-68
2022/03/30 05:16:42;;;;;;;;;;;19.00;49.40;;;;;;5036291;28;1092;-68
2022/03/30 05:19:08;;;;;;;;;;;19.10;49.40;;;;;;5036369;28;1201;-68
2022/03/30 05:21:34;;;;;;;;;;;19.10;49.40;;;;;;5036374;28;1957;-68
2022/03/30 05:23:59;;;;;;;;;;;19.10;49.70;;;;;;5024398;28;2360;-67
2022/03/30 05:26:26;;;;;;;;;;;19.10;49.50;;;;;;5035402;28;1040;-66
2022/03/30 05:28:51;;;;;;;;;;;19.10;49.50;;;;;;5035980;28;1278;-65
2022/03/30 05:31:17;;;;;;;;;;;19.10;49.40;;;;;;5036065;28;689;-66
2022/03/30 05:33:42;;;;;;;;;;;19.10;49.40;;;;;;5036288;28;706;-65
2022/03/30 05:36:07;;;;;;;;;;;19.10;49.40;;;;;;5036062;28;1174;-66
2022/03/30 05:38:34;;;;;;;;;;;19.10;49.40;;;;;;5035938;28;1200;-66
2022/03/30 05:40:59;;;;;;;;;;;19.10;49.50;;;;;;5036092;28;881;-68
2022/03/30 05:43:25;;;;;;;;;;;19.10;49.50;;;;;;5035952;28;1965;-67
2022/03/30 05:45:51;;;;;;;;;;;19.10;49.40;;;;;;5032609;28;1783;-68
2022/03/30 05:48:17;;;;;;;;;;;19.10;49.50;;;;;;5032153;28;2091;-68
2022/03/30 05:50:42;;;;;;;;;;;19.10;49.50;;;;;;5035387;28;1194;-68
2022/03/30 05:53:08;;;;;;;;;;;19.10;49.50;;;;;;5035660;28;1126;-68
2022/03/30 05:55:33;;;;;;;;;;;19.10;49.50;;;;;;5035302;28;1220;-68
2022/03/30 05:57:59;;;;;;;;;;;19.10;49.60;;;;;;5035528;28;1202;-68
2022/03/30 06:00:24;;;;;;;;;;;19.10;49.60;;;;;;5035682;28;1119;-68
2022/03/30 06:02:49;;;;;;;;;;;19.10;49.60;;;;;;5035406;28;1914;-68
2022/03/30 06:05:15;;;;;;;;;;;19.10;49.60;;;;;;5033749;28;1170;-68
2022/03/30 06:07:40;;;;;;;;;;;19.10;49.60;;;;;;5035195;28;1289;-68
2022/03/30 06:10:06;;;;;;;;;;;19.10;49.60;;;;;;5035377;28;882;-68
2022/03/30 06:12:31;;;;;;;;;;;19.10;49.60;;;;;;5035575;28;911;-68
2022/03/30 06:14:57;;;;;;;;;;;19.10;49.70;;;;;;5035451;28;890;-68
2022/03/30 06:17:22;;;;;;;;;;;19.10;49.70;;;;;;5034016;28;1199;-68
2022/03/30 06:19:48;;;;;;;;;;;19.10;49.70;;;;;;5035401;28;934;-68
2022/03/30 06:22:13;;;;;;;;;;;19.10;49.70;;;;;;5034089;28;1899;-68
2022/03/30 06:24:39;;;;;;;;;;;19.10;49.70;;;;;;5033992;28;741;-68
2022/03/30 06:27:05;;;;;;;;;;;19.10;49.70;;;;;;5033752;28;1042;-67
2022/03/30 06:29:31;;;;;;;;;;;19.10;49.70;;;;;;5035174;28;1261;-67
2022/03/30 06:31:56;;;;;;;;;;;19.10;49.70;;;;;;5033924;28;1036;-68
2022/03/30 06:34:22;;;;;;;;;;;19.10;49.70;;;;;;5035053;28;891;-68
2022/03/30 06:36:47;;;;;;;;;;;19.10;49.80;;;;;;5034605;28;1111;-67
2022/03/30 06:39:13;;;;;;;;;;;19.10;49.80;;;;;;5034951;28;1288;-67
2022/03/30 06:41:39;;;;;;;;;;;19.10;49.80;;;;;;5034829;28;1958;-67
2022/03/30 06:44:04;;;;;;;;;;;19.10;49.80;;;;;;5034927;28;894;-67
2022/03/30 06:46:33;;;;;;;;;;;19.10;49.80;;;;;;5034509;28;1029;-69
2022/03/30 06:49:00;;;;;;;;;;;19.10;49.80;;;;;;5034815;28;1187;-67
2022/03/30 06:51:25;;;;;;;;;;;19.10;49.90;;;;;;5034772;28;1025;-69
2022/03/30 06:53:50;;;;;;;;;;;19.10;49.90;;;;;;5033547;28;872;-68
2022/03/30 06:56:16;;;;;;;;;;;19.10;49.90;;;;;;5034352;28;891;-69
2022/03/30 06:58:41;;;;;;;;;;;19.10;49.90;;;;;;5034389;28;1210;-68
2022/03/30 07:01:07;;;;;;;;;;;19.10;49.90;;;;;;5034404;28;1130;-68
2022/03/30 07:03:32;;;;;;;;;;;19.10;50.10;;;;;;5034418;28;1909;-68
2022/03/30 07:05:58;;;;;;;;;;;19.20;50.10;;;;;;5034137;28;878;-67
2022/03/30 07:11:07;;;;;;;;;;;19.30;50.00;;;;;;5034315;28;722;-68
2022/03/30 07:13:33;;;;;;;;;;;19.40;49.80;;;;;;5034361;28;1081;-69
2022/03/30 07:15:59;;;;;;;;;;;19.50;49.80;;;;;;5033954;28;1058;-68
2022/03/30 07:18:25;;;;;;;;;;;19.60;49.60;;;;;;5033337;28;1263;-69
2022/03/30 07:20:50;;;;;;;;;;;19.70;49.40;;;;;;5033975;28;865;-69
2022/03/30 07:23:16;;;;;;;;;;;19.90;49.30;;;;;;5034111;28;1953;-68
2022/03/30 07:25:41;;;;;;;;;;;19.90;49.10;;;;;;5033945;28;874;-69
2022/03/30 07:28:07;;;;;;;;;;;20.10;48.90;;;;;;5034022;28;1303;-69
2022/03/30 07:30:32;;;;;;;;;;;20.20;48.70;;;;;;5032692;28;726;-69
2022/03/30 07:32:58;;;;;;;;;;;20.30;48.50;;;;;;5032824;28;736;-68
2022/03/30 07:35:25;;;;;;;;;;;20.40;48.30;;;;;;5033747;28;978;-68
2022/03/30 07:37:56;;;;;;;;;;;20.40;48.10;;;;;;5090417;27;1317;-69
2022/03/30 07:40:22;;;;;;;;;;;20.50;48.00;;;;;;5089425;28;1271;-68
2022/03/30 07:42:47;;;;;;;;;;;20.50;47.80;;;;;;5090850;28;799;-67
2022/03/30 07:45:13;;;;;;;;;;;20.60;47.80;;;;;;5089234;28;839;-67
2022/03/30 07:47:38;;;;;;;;;;;20.60;47.70;;;;;;5088736;28;1325;-68
2022/03/30 07:50:04;;;;;;;;;;;20.70;47.70;;;;;;5090174;28;775;-69
2022/03/30 07:52:29;;;;;;;;;;;20.70;47.70;;;;;;5090202;28;857;-67
2022/03/30 07:54:55;;;;;;;;;;;20.70;47.70;;;;;;5090255;28;886;-67
2022/03/30 07:57:26;;;;;;;;;;;20.70;47.70;;;;;;5089803;28;1967;-68
2022/03/30 07:59:55;;;;;;;;;;;20.70;47.70;;;;;;5090271;28;1212;-67
2022/03/30 08:02:20;;;;;;;;;;;20.70;47.70;;;;;;5089986;28;1170;-68
2022/03/30 08:04:46;;;;;;;;;;;20.70;47.80;;;;;;5088845;28;803;-68
2022/03/30 08:07:12;;;;;;;;;;;20.70;47.80;;;;;;5089828;28;859;-68
2022/03/30 08:09:37;;;;;;;;;;;20.70;47.80;;;;;;5089855;28;1204;-68
2022/03/30 08:12:03;;;;;;;;;;;20.70;47.80;;;;;;5089860;28;894;-67
2022/03/30 08:14:28;;;;;;;;;;;20.70;47.80;;;;;;5090043;28;830;-68
2022/03/30 08:16:54;;;;;;;;;;;20.70;47.80;;;;;;5088320;28;1901;-68
2022/03/30 08:19:19;;;;;;;;;;;20.70;47.80;;;;;;5089820;28;1194;-67
2022/03/30 08:24:29;;;;;;;;;;;20.60;47.90;;;;;;5089779;28;688;-68
2022/03/30 08:26:54;;;;;;;;;;;20.60;47.90;;;;;;5089344;28;910;-68
2022/03/30 08:29:20;;;;;;;;;;;20.60;47.90;;;;;;5088440;28;1193;-68
2022/03/30 08:31:47;;;;;;;;;;;20.60;48.00;;;;;;5089411;28;882;-68
2022/03/30 08:34:14;;;;;;;;;;;20.60;48.00;;;;;;5088437;28;863;-67
2022/03/30 08:36:40;;;;;;;;;;;20.60;48.10;;;;;;5098878;28;1906;-68
2022/03/30 08:39:11;;;;;;;;;;;20.50;48.10;;;;;;5109846;28;1228;-67
2022/03/30 08:41:40;;;;;;;;;;;20.50;48.20;;;;;;5092271;28;1218;-67
2022/03/30 08:44:06;;;;;;;;;;;20.50;48.30;;;;;;5109608;28;807;-67
2022/03/30 08:46:31;;;;;;;;;;;20.50;48.30;;;;;;5109527;28;909;-66
2022/03/30 08:48:57;;;;;;;;;;;20.50;48.40;;;;;;5098126;28;1199;-67
2022/03/30 08:51:22;;;;;;;;;;;20.50;48.50;;;;;;5085987;28;1663;-71
2022/03/30 08:53:48;;;;;;;;;;;20.40;48.60;;;;;;5090851;28;957;-67
2022/03/30 08:56:14;;;;;;;;;;;20.40;48.60;;;;;;5094406;28;1971;-67
2022/03/30 08:58:40;;;;;;;;;;;20.40;48.60;;;;;;5094783;28;1287;-68
2022/03/30 09:01:09;;;;;;;;;;;20.40;48.70;;;;;;5093584;28;1244;-69
2022/03/30 09:03:34;;;;;;;;;;;20.40;48.80;;;;;;5074521;28;955;-69
2022/03/30 09:06:00;;;;;;;;;;;20.30;48.70;;;;;;5074573;28;974;-67
2022/03/30 09:08:27;;;;;;;;;;;20.30;48.80;;;;;;5074032;28;1251;-66
2022/03/30 09:10:53;;;;;;;;;;;20.30;48.80;;;;;;5074118;28;901;-67
2022/03/30 09:13:18;;;;;;;;;;;20.30;48.90;;;;;;5075266;28;1091;-68
2022/03/30 09:15:44;;;;;;;;;;;20.30;49.00;;;;;;5073871;28;1894;-67
2022/03/30 09:18:10;;;;;;;;;;;20.30;49.00;;;;;;5075096;28;1299;-68
2022/03/30 09:20:36;;;;;;;;;;;20.20;49.00;;;;;;5075300;28;897;-67
2022/03/30 09:23:01;;;;;;;;;;;20.20;49.10;;;;;;5075090;28;985;-68
2022/03/30 09:25:27;;;;;;;;;;;20.20;49.10;;;;;;5075322;28;692;-67
2022/03/30 09:27:54;;;;;;;;;;;20.20;49.10;;;;;;5074730;28;1306;-67
2022/03/30 09:30:19;;;;;;;;;;;20.20;49.10;;;;;;5057135;28;1061;-66
2022/03/30 09:32:45;;;;;;;;;;;20.20;49.20;;;;;;5075321;28;799;-68
2022/03/30 09:35:24;;;;;;;;;;;20.20;49.20;;;;;;5075051;28;881;-67
2022/03/30 09:38:08;;;;;;;;;;;20.20;49.30;;;;;;5091134;28;1910;-66
2022/03/30 09:40:44;;;;;;;;;;;20.20;49.30;;;;;;5095362;28;984;-67
2022/03/30 09:43:09;;;;;;;;;;;20.20;49.30;;;;;;5093808;28;811;-68
2022/03/30 09:45:34;;;;;;;;;;;20.10;49.30;;;;;;5094830;28;1045;-68
2022/03/30 09:48:10;;;;;;;;;;;20.10;49.30;;;;;;5094830;28;1210;-68
2022/03/30 09:50:36;;;;;;;;;;;20.10;49.40;;;;;;5093722;28;871;-67
2022/03/30 09:53:08;;;;;;;;;;;20.10;49.40;;;;;;5093350;28;1228;-67
2022/03/30 09:55:34;;;;;;;;;;;20.10;49.40;;;;;;5094702;28;1969;-68
2022/03/30 09:58:05;;;;;;;;;;;20.10;49.50;;;;;;5095030;28;1305;-69
2022/03/30 10:00:30;;;;;;;;;;;20.10;49.50;;;;;;5093642;28;1133;-68
2022/03/30 10:02:55;;;;;;;;;;;20.10;49.50;;;;;;5094484;28;1066;-67
2022/03/30 10:05:21;;;;;;;;;;;20.10;49.60;;;;;;5086769;28;2138;-67
2022/03/30 10:07:47;;;;;;;;;;;20.10;49.60;;;;;;5089005;28;1283;-67
2022/03/30 10:10:13;;;;;;;;;;;20.10;49.60;;;;;;5094112;28;1160;-67
2022/03/30 10:12:39;;;;;;;;;;;20.10;49.60;;;;;;5085947;28;1632;-69
2022/03/30 10:15:05;;;;;;;;;;;20.10;49.70;;;;;;5072141;28;1186;-69
2022/03/30 10:17:30;;;;;;;;;;;20.10;49.60;;;;;;5071762;28;1909;-68
2022/03/30 10:19:58;;;;;;;;;;;20.10;49.70;;;;;;5072871;28;926;-67
2022/03/30 10:22:32;;;;;;;;;;;20.10;49.70;;;;;;5072346;28;906;-67
2022/03/30 10:25:02;;;;;;;;;;;20.10;49.70;;;;;;5072561;28;890;-69
2022/03/30 10:27:36;;;;;;;;;;;20.10;49.70;;;;;;5073588;28;1287;-69
2022/03/30 10:30:03;;;;;;;;;;;20.20;49.70;;;;;;5073769;28;855;-68
2022/03/30 10:32:33;;;;;;;;;;;20.20;49.70;;;;;;5072298;28;839;-69
2022/03/30 10:35:09;;;;;;;;;;;20.20;49.70;;;;;;5073719;28;870;-68
2022/03/30 10:37:36;;;;;;;;;;;20.20;49.60;;;;;;5087210;28;1910;-68
2022/03/30 10:40:05;;;;;;;;;;;20.20;49.60;;;;;;5091572;28;959;-68
2022/03/30 10:42:46;;;;;;;;;;;20.20;49.60;;;;;;5093584;28;862;-67
2022/03/30 10:45:30;;;;;;;;;;;20.20;49.50;;;;;;5092546;28;831;-70
2022/03/30 10:48:05;;;;;;;;;;;20.20;49.50;;;;;;5092091;28;1376;-68
2022/03/30 10:50:34;;;;;;;;;;;20.20;49.50;;;;;;5092500;28;846;-68
2022/03/30 10:53:00;;;;;;;;;;;20.20;49.50;;;;;;5093432;28;802;-68
2022/03/30 10:55:25;;;;;;;;;;;20.20;49.60;;;;;;5093331;28;870;-68
2022/03/30 10:57:53;;;;;;;;;;;20.20;49.60;;;;;;5092979;28;1906;-68
2022/03/30 11:00:19;;;;;;;;;;;20.20;49.60;;;;;;5092577;28;1200;-67
2022/03/30 11:02:44;;;;;;;;;;;20.20;49.70;;;;;;5092039;28;1147;-68
2022/03/30 11:05:10;;;;;;;;;;;20.20;49.70;;;;;;5093505;28;878;-68
2022/03/30 11:07:36;;;;;;;;;;;20.20;49.70;;;;;;5093072;28;1211;-69
2022/03/30 11:10:22;;;;;;;;;;;20.20;49.70;;;;;;5093033;28;838;-69
2022/03/30 11:13:03;;;;;;;;;;;20.20;49.70;;;;;;5092938;28;1118;-68
2022/03/30 11:15:31;;;;;;;;;;;20.20;49.80;;;;;;5093087;28;806;-68
2022/03/30 11:18:17;;;;;;;;;;;20.10;49.80;;;;;;5092881;28;1898;-68
2022/03/30 11:21:03;;;;;;;;;;;20.20;49.80;;;;;;5091938;28;843;-68
2022/03/30 11:23:29;;;;;;;;;;;20.10;49.80;;;;;;5093245;28;1037;-70
2022/03/30 11:25:56;;;;;;;;;;;20.10;49.90;;;;;;5092983;28;865;-69
2022/03/30 11:28:33;;;;;;;;;;;20.10;49.90;;;;;;5093519;28;1209;-69
2022/03/30 11:31:01;;;;;;;;;;;20.10;49.90;;;;;;5074828;28;1048;-69
2022/03/30 11:33:27;;;;;;;;;;;20.10;50.00;;;;;;5091891;28;870;-71
2022/03/30 11:35:52;;;;;;;;;;;20.10;50.00;;;;;;5092613;28;1950;-68
2022/03/30 11:38:32;;;;;;;;;;;20.10;50.00;;;;;;5093000;28;1223;-72
2022/03/30 11:40:59;;;;;;;;;;;20.10;50.00;;;;;;5091752;28;1048;-68
2022/03/30 11:43:24;;;;;;;;;;;20.10;50.00;;;;;;5091401;28;1182;-68
2022/03/30 11:45:51;;;;;;;;;;;20.10;50.10;;;;;;5093304;28;906;-69
2022/03/30 11:48:16;;;;;;;;;;;20.00;50.10;;;;;;5093324;28;1701;-69
2022/03/30 11:50:48;;;;;;;;;;;20.00;50.10;;;;;;5089123;28;1948;-68
2022/03/30 11:53:14;;;;;;;;;;;20.00;50.10;;;;;;5092623;28;1286;-68
2022/03/30 11:55:49;;;;;;;;;;;20.00;50.20;;;;;;5091540;28;1975;-68
2022/03/30 11:58:25;;;;;;;;;;;20.00;50.20;;;;;;5092801;28;1133;-68
2022/03/30 12:00:52;;;;;;;;;;;20.00;50.20;;;;;;5091746;28;1235;-68
2022/03/30 12:03:18;;;;;;;;;;;20.00;50.30;;;;;;5091639;28;1186;-68
2022/03/30 12:05:43;;;;;;;;;;;20.00;50.30;;;;;;5091388;28;1064;-68
2022/03/30 12:08:09;;;;;;;;;;;19.90;50.30;;;;;;5092498;28;1231;-68
2022/03/30 12:10:34;;;;;;;;;;;19.90;50.30;;;;;;5092507;28;803;-68
2022/03/30 12:13:00;;;;;;;;;;;19.90;50.30;;;;;;5092906;28;836;-68
2022/03/30 12:15:25;;;;;;;;;;;20.00;50.40;;;;;;5091390;28;1044;-67
2022/03/30 12:17:52;;;;;;;;;;;19.90;50.30;;;;;;5090990;28;1914;-68
2022/03/30 12:20:21;;;;;;;;;;;19.90;50.30;;;;;;5091091;28;870;-67
2022/03/30 12:22:48;;;;;;;;;;;19.90;50.40;;;;;;5091577;28;879;-67
2022/03/30 12:25:20;;;;;;;;;;;19.90;50.40;;;;;;5095019;28;1232;-68
2022/03/30 12:27:45;;;;;;;;;;;19.90;50.40;;;;;;5095895;28;1219;-69
2022/03/30 12:30:11;;;;;;;;;;;19.90;50.40;;;;;;5096442;28;866;-68
2022/03/30 12:32:36;;;;;;;;;;;19.90;50.40;;;;;;5096279;28;1104;-67
2022/03/30 12:35:06;;;;;;;;;;;19.90;50.50;;;;;;5094998;28;878;-68
2022/03/30 12:37:31;;;;;;;;;;;19.90;50.50;;;;;;5094997;28;1977;-69
2022/03/30 12:40:05;;;;;;;;;;;19.90;50.50;;;;;;5096060;28;815;-69
2022/03/30 12:42:33;;;;;;;;;;;19.90;50.50;;;;;;5094946;28;1001;-68
2022/03/30 12:45:00;;;;;;;;;;;19.90;50.50;;;;;;5095029;28;902;-68
2022/03/30 12:47:32;;;;;;;;;;;19.90;50.60;;;;;;5094277;28;1606;-68
2022/03/30 12:50:04;;;;;;;;;;;19.90;50.60;;;;;;5095874;28;803;-68
2022/03/30 12:52:34;;;;;;;;;;;19.90;50.60;;;;;;5096062;28;874;-68
2022/03/30 12:55:18;;;;;;;;;;;19.90;50.60;;;;;;5095835;28;1067;-67
2022/03/30 12:58:14;;;;;;;;;;;19.90;50.70;;;;;;5095317;28;1913;-67
2022/03/30 13:00:40;;;;;;;;;;;19.90;50.70;;;;;;5091243;28;1311;-67
2022/03/30 13:03:15;;;;;;;;;;;19.80;50.70;;;;;;5091773;28;1980;-68
2022/03/30 13:05:41;;;;;;;;;;;19.90;50.80;;;;;;5087812;28;1593;-68
2022/03/30 13:08:07;;;;;;;;;;;19.80;50.70;;;;;;5094208;28;1311;-67
2022/03/30 13:10:49;;;;;;;;;;;19.80;50.70;;;;;;5095708;28;1600;-67
2022/03/30 13:13:19;;;;;;;;;;;19.90;50.80;;;;;;5094686;28;890;-70
2022/03/30 13:15:45;;;;;;;;;;;19.80;50.70;;;;;;5088865;28;2265;-68
2022/03/30 13:18:13;;;;;;;;;;;19.80;50.70;;;;;;5094560;28;1621;-68
2022/03/30 13:20:39;;;;;;;;;;;19.80;50.80;;;;;;5084522;28;1854;-68
2022/03/30 13:23:06;;;;;;;;;;;19.80;50.80;;;;;;5083362;28;1202;-68
2022/03/30 13:25:33;;;;;;;;;;;19.80;50.80;;;;;;5093224;28;1282;-71
2022/03/30 13:28:02;;;;;;;;;;;19.80;50.80;;;;;;5092593;28;1295;-69
2022/03/30 13:30:28;;;;;;;;;;;19.80;50.80;;;;;;5092560;28;1009;-69
2022/03/30 13:32:53;;;;;;;;;;;19.80;50.90;;;;;;5092593;28;807;-69
2022/03/30 13:35:19;;;;;;;;;;;19.80;50.90;;;;;;5092521;28;799;-68
2022/03/30 13:37:44;;;;;;;;;;;19.80;50.90;;;;;;5084546;28;1953;-68
2022/03/30 13:40:10;;;;;;;;;;;19.80;50.90;;;;;;5093780;28;771;-67
2022/03/30 13:42:35;;;;;;;;;;;19.80;50.90;;;;;;5094762;28;882;-67
2022/03/30 13:45:01;;;;;;;;;;;19.80;50.90;;;;;;5093744;28;804;-68
2022/03/30 13:47:27;;;;;;;;;;;19.80;50.90;;;;;;5094493;28;1319;-68
2022/03/30 13:49:53;;;;;;;;;;;19.80;50.90;;;;;;5094947;28;856;-68
2022/03/30 13:52:19;;;;;;;;;;;19.80;51.00;;;;;;5094826;28;917;-68
2022/03/30 13:54:44;;;;;;;;;;;19.80;51.00;;;;;;5094709;28;787;-69
2022/03/30 13:57:10;;;;;;;;;;;19.80;51.00;;;;;;5094548;28;1965;-68
2022/03/30 13:59:35;;;;;;;;;;;19.80;51.00;;;;;;5094742;28;1528;-67
2022/03/30 14:02:01;;;;;;;;;;;19.80;51.10;;;;;;5094542;28;1446;-69
2022/03/30 14:04:27;;;;;;;;;;;19.70;51.00;;;;;;5063096;22;2524;-69
2022/03/30 14:06:52;;;;;;;;;;;19.80;51.10;;;;;;5052100;28;2502;-70
2022/03/30 14:09:18;;;;;;;;;;;19.70;51.00;;;;;;5053687;28;1353;-68
2022/03/30 14:11:43;;;;;;;;;;;19.70;51.10;;;;;;5054345;28;1493;-69
2022/03/30 14:14:08;;;;;;;;;;;19.70;51.10;;;;;;5054278;28;1057;-67
2022/03/30 14:16:34;;;;;;;;;;;19.70;51.10;;;;;;5053785;28;1898;-68
2022/03/30 14:18:59;;;;;;;;;;;19.70;51.10;;;;;;5054413;28;1208;-68
2022/03/30 14:21:25;;;;;;;;;;;19.70;51.20;;;;;;5053957;28;812;-68
2022/03/30 14:23:51;;;;;;;;;;;19.70;51.20;;;;;;5053215;28;2806;-68
2022/03/30 14:26:16;;;;;;;;;;;19.70;51.20;;;;;;5053075;28;2119;-68
2022/03/30 14:28:42;;;;;;;;;;;19.70;51.20;;;;;;5053342;28;2252;-67
2022/03/30 14:31:07;;;;;;;;;;;19.70;51.30;;;;;;5052964;28;1505;-68
2022/03/30 14:33:32;;;;;;;;;;;19.70;51.30;;;;;;5053358;28;875;-68
2022/03/30 14:35:59;;;;;;;;;;;19.70;51.30;;;;;;5052951;28;1898;-68
2022/03/30 14:38:25;;;;;;;;;;;19.70;51.30;;;;;;5053177;28;1211;-67
2022/03/30 14:40:51;;;;;;;;;;;19.60;51.30;;;;;;5053190;28;943;-67